sensor_id;sensor_type;location;lat;lon;timestamp;P1;durP1;ratioP1;P2;durP2;ratioP2
42244;SDS011;27912;51.828;5.688;2023-04-19T00:00:29;10.57;;;8.10;;
42244;SDS011;27912;51.828;5.688;2023-04-19T00:02:55;11.85;;;8.38;;
42244;SDS011;27912;51.828;5.688;2023-04-19T00:05:21;12.15;;;8.15;;
42244;SDS011;27912;51.828;5.688;2023-04-19T00:07:48;10.15;;;7.38;;
42244;SDS011;27912;51.828;5.688;2023-04-19T00:10:14;12.20;;;7.90;;
42244;SDS011;27912;51.828;5.688;2023-04-19T00:12:40;12.50;;;8.27;;
42244;SDS011;27912;51.828;5.688;2023-04-19T00:15:06;10.02;;;8.05;;
42244;SDS011;27912;51.828;5.688;2023-04-19T00:17:32;11.45;;;7.28;;
42244;SDS011;27912;51.828;5.688;2023-04-19T00:19:58;13.50;;;8.32;;
42244;SDS011;27912;51.828;5.688;2023-04-19T00:22:24;12.05;;;8.27;;
42244;SDS011;27912;51.828;5.688;2023-04-19T00:24:50;12.80;;;7.78;;
42244;SDS011;27912;51.828;5.688;2023-04-19T00:27:16;9.95;;;6.78;;
42244;SDS011;27912;51.828;5.688;2023-04-19T00:29:42;12.40;;;8.15;;
42244;SDS011;27912;51.828;5.688;2023-04-19T00:32:07;11.88;;;8.20;;
42244;SDS011;27912;51.828;5.688;2023-04-19T00:34:33;12.23;;;8.73;;
42244;SDS011;27912;51.828;5.688;2023-04-19T00:36:59;11.02;;;8.38;;
42244;SDS011;27912;51.828;5.688;2023-04-19T00:39:24;11.68;;;8.20;;
42244;SDS011;27912;51.828;5.688;2023-04-19T00:41:50;12.27;;;8.25;;
42244;SDS011;27912;51.828;5.688;2023-04-19T00:44:16;13.68;;;9.20;;
42244;SDS011;27912;51.828;5.688;2023-04-19T00:46:42;14.85;;;8.75;;
42244;SDS011;27912;51.828;5.688;2023-04-19T00:49:08;11.15;;;8.32;;
42244;SDS011;27912;51.828;5.688;2023-04-19T00:51:34;12.00;;;8.57;;
42244;SDS011;27912;51.828;5.688;2023-04-19T00:54:03;11.32;;;8.20;;
42244;SDS011;27912;51.828;5.688;2023-04-19T00:56:30;10.68;;;7.50;;
42244;SDS011;27912;51.828;5.688;2023-04-19T00:58:58;13.38;;;9.52;;
42244;SDS011;27912;51.828;5.688;2023-04-19T01:01:24;12.52;;;8.20;;
42244;SDS011;27912;51.828;5.688;2023-04-19T01:03:49;14.35;;;9.20;;
42244;SDS011;27912;51.828;5.688;2023-04-19T01:06:15;12.57;;;8.20;;
42244;SDS011;27912;51.828;5.688;2023-04-19T01:08:41;12.60;;;8.93;;
42244;SDS011;27912;51.828;5.688;2023-04-19T01:11:06;12.07;;;8.32;;
42244;SDS011;27912;51.828;5.688;2023-04-19T01:13:32;13.13;;;7.82;;
42244;SDS011;27912;51.828;5.688;2023-04-19T01:15:58;12.93;;;8.82;;
42244;SDS011;27912;51.828;5.688;2023-04-19T01:18:24;13.98;;;8.90;;
42244;SDS011;27912;51.828;5.688;2023-04-19T01:20:53;17.88;;;9.35;;
42244;SDS011;27912;51.828;5.688;2023-04-19T01:23:18;12.32;;;9.18;;
42244;SDS011;27912;51.828;5.688;2023-04-19T01:25:44;12.77;;;8.52;;
42244;SDS011;27912;51.828;5.688;2023-04-19T01:28:10;12.27;;;8.38;;
42244;SDS011;27912;51.828;5.688;2023-04-19T01:30:36;13.43;;;9.85;;
42244;SDS011;27912;51.828;5.688;2023-04-19T01:33:01;12.43;;;8.95;;
42244;SDS011;27912;51.828;5.688;2023-04-19T01:35:27;14.40;;;8.93;;
42244;SDS011;27912;51.828;5.688;2023-04-19T01:37:53;12.27;;;8.55;;
42244;SDS011;27912;51.828;5.688;2023-04-19T01:40:22;15.73;;;10.50;;
42244;SDS011;27912;51.828;5.688;2023-04-19T01:42:48;15.38;;;9.85;;
42244;SDS011;27912;51.828;5.688;2023-04-19T01:45:14;16.80;;;10.68;;
42244;SDS011;27912;51.828;5.688;2023-04-19T01:47:39;14.93;;;10.43;;
42244;SDS011;27912;51.828;5.688;2023-04-19T01:50:05;14.30;;;10.60;;
42244;SDS011;27912;51.828;5.688;2023-04-19T01:52:31;15.27;;;9.88;;
42244;SDS011;27912;51.828;5.688;2023-04-19T01:54:57;12.27;;;9.65;;
42244;SDS011;27912;51.828;5.688;2023-04-19T01:57:22;14.00;;;9.75;;
42244;SDS011;27912;51.828;5.688;2023-04-19T01:59:48;15.18;;;10.20;;
42244;SDS011;27912;51.828;5.688;2023-04-19T02:02:14;14.98;;;10.40;;
42244;SDS011;27912;51.828;5.688;2023-04-19T02:04:39;16.52;;;10.32;;
42244;SDS011;27912;51.828;5.688;2023-04-19T02:07:05;15.00;;;10.45;;
42244;SDS011;27912;51.828;5.688;2023-04-19T02:09:33;16.33;;;11.10;;
42244;SDS011;27912;51.828;5.688;2023-04-19T02:12:00;14.65;;;10.38;;
42244;SDS011;27912;51.828;5.688;2023-04-19T02:14:26;15.40;;;10.63;;
42244;SDS011;27912;51.828;5.688;2023-04-19T02:16:51;14.05;;;10.35;;
42244;SDS011;27912;51.828;5.688;2023-04-19T02:19:17;15.40;;;10.90;;
42244;SDS011;27912;51.828;5.688;2023-04-19T02:21:42;16.30;;;11.15;;
42244;SDS011;27912;51.828;5.688;2023-04-19T02:24:08;15.23;;;10.38;;
42244;SDS011;27912;51.828;5.688;2023-04-19T02:26:33;14.90;;;9.82;;
42244;SDS011;27912;51.828;5.688;2023-04-19T02:28:59;16.27;;;11.48;;
42244;SDS011;27912;51.828;5.688;2023-04-19T02:31:24;16.13;;;11.02;;
42244;SDS011;27912;51.828;5.688;2023-04-19T02:33:50;13.02;;;9.98;;
42244;SDS011;27912;51.828;5.688;2023-04-19T02:36:15;14.95;;;10.02;;
42244;SDS011;27912;51.828;5.688;2023-04-19T02:38:41;16.35;;;10.57;;
42244;SDS011;27912;51.828;5.688;2023-04-19T02:41:06;16.58;;;10.63;;
42244;SDS011;27912;51.828;5.688;2023-04-19T02:43:32;15.35;;;10.30;;
42244;SDS011;27912;51.828;5.688;2023-04-19T02:45:57;15.02;;;8.63;;
42244;SDS011;27912;51.828;5.688;2023-04-19T02:48:23;15.70;;;9.95;;
42244;SDS011;27912;51.828;5.688;2023-04-19T02:50:49;15.13;;;10.15;;
42244;SDS011;27912;51.828;5.688;2023-04-19T02:53:14;16.05;;;9.88;;
42244;SDS011;27912;51.828;5.688;2023-04-19T02:55:40;16.70;;;9.05;;
42244;SDS011;27912;51.828;5.688;2023-04-19T02:58:05;15.77;;;9.95;;
42244;SDS011;27912;51.828;5.688;2023-04-19T03:00:31;13.30;;;9.77;;
42244;SDS011;27912;51.828;5.688;2023-04-19T03:02:56;13.60;;;8.85;;
42244;SDS011;27912;51.828;5.688;2023-04-19T03:05:22;14.52;;;9.38;;
42244;SDS011;27912;51.828;5.688;2023-04-19T03:07:48;12.60;;;9.30;;
42244;SDS011;27912;51.828;5.688;2023-04-19T03:10:13;13.32;;;9.32;;
42244;SDS011;27912;51.828;5.688;2023-04-19T03:12:39;16.10;;;10.10;;
42244;SDS011;27912;51.828;5.688;2023-04-19T03:15:06;13.85;;;9.93;;
42244;SDS011;27912;51.828;5.688;2023-04-19T03:17:32;12.10;;;8.52;;
42244;SDS011;27912;51.828;5.688;2023-04-19T03:19:58;13.40;;;9.70;;
42244;SDS011;27912;51.828;5.688;2023-04-19T03:22:23;13.50;;;8.93;;
42244;SDS011;27912;51.828;5.688;2023-04-19T03:24:49;15.90;;;9.00;;
42244;SDS011;27912;51.828;5.688;2023-04-19T03:27:14;14.82;;;9.45;;
42244;SDS011;27912;51.828;5.688;2023-04-19T03:29:40;15.13;;;8.80;;
42244;SDS011;27912;51.828;5.688;2023-04-19T03:32:06;14.60;;;9.05;;
42244;SDS011;27912;51.828;5.688;2023-04-19T03:34:31;14.15;;;9.48;;
42244;SDS011;27912;51.828;5.688;2023-04-19T03:36:57;13.38;;;8.63;;
42244;SDS011;27912;51.828;5.688;2023-04-19T03:39:23;12.48;;;8.25;;
42244;SDS011;27912;51.828;5.688;2023-04-19T03:41:48;14.13;;;8.95;;
42244;SDS011;27912;51.828;5.688;2023-04-19T03:44:15;15.15;;;9.85;;
42244;SDS011;27912;51.828;5.688;2023-04-19T03:46:40;15.50;;;9.65;;
42244;SDS011;27912;51.828;5.688;2023-04-19T03:49:06;11.75;;;7.93;;
42244;SDS011;27912;51.828;5.688;2023-04-19T03:51:31;13.80;;;9.57;;
42244;SDS011;27912;51.828;5.688;2023-04-19T03:53:57;15.18;;;9.82;;
42244;SDS011;27912;51.828;5.688;2023-04-19T03:56:23;15.10;;;8.88;;
42244;SDS011;27912;51.828;5.688;2023-04-19T03:58:51;14.52;;;9.07;;
42244;SDS011;27912;51.828;5.688;2023-04-19T04:01:20;11.20;;;7.20;;
42244;SDS011;27912;51.828;5.688;2023-04-19T04:03:46;13.00;;;8.25;;
42244;SDS011;27912;51.828;5.688;2023-04-19T04:06:12;14.70;;;9.02;;
42244;SDS011;27912;51.828;5.688;2023-04-19T04:08:37;12.15;;;7.43;;
42244;SDS011;27912;51.828;5.688;2023-04-19T04:11:03;14.32;;;8.27;;
42244;SDS011;27912;51.828;5.688;2023-04-19T04:13:29;10.00;;;7.25;;
42244;SDS011;27912;51.828;5.688;2023-04-19T04:15:54;9.90;;;6.93;;
42244;SDS011;27912;51.828;5.688;2023-04-19T04:18:20;11.05;;;7.38;;
42244;SDS011;27912;51.828;5.688;2023-04-19T04:20:46;12.77;;;7.47;;
42244;SDS011;27912;51.828;5.688;2023-04-19T04:23:12;10.57;;;6.53;;
42244;SDS011;27912;51.828;5.688;2023-04-19T04:25:38;10.23;;;6.93;;
42244;SDS011;27912;51.828;5.688;2023-04-19T04:28:04;9.40;;;6.63;;
42244;SDS011;27912;51.828;5.688;2023-04-19T04:30:30;10.52;;;6.75;;
42244;SDS011;27912;51.828;5.688;2023-04-19T04:32:55;10.80;;;7.07;;
42244;SDS011;27912;51.828;5.688;2023-04-19T04:35:22;8.25;;;6.13;;
42244;SDS011;27912;51.828;5.688;2023-04-19T04:37:48;7.97;;;6.03;;
42244;SDS011;27912;51.828;5.688;2023-04-19T04:40:13;9.48;;;6.10;;
42244;SDS011;27912;51.828;5.688;2023-04-19T04:42:39;11.40;;;6.10;;
42244;SDS011;27912;51.828;5.688;2023-04-19T04:45:07;12.07;;;5.97;;
42244;SDS011;27912;51.828;5.688;2023-04-19T04:47:34;10.45;;;6.15;;
42244;SDS011;27912;51.828;5.688;2023-04-19T04:50:00;9.27;;;5.95;;
42244;SDS011;27912;51.828;5.688;2023-04-19T04:52:26;9.68;;;5.80;;
42244;SDS011;27912;51.828;5.688;2023-04-19T04:54:52;11.70;;;6.15;;
42244;SDS011;27912;51.828;5.688;2023-04-19T04:57:18;10.00;;;6.13;;
42244;SDS011;27912;51.828;5.688;2023-04-19T04:59:43;10.23;;;6.75;;
42244;SDS011;27912;51.828;5.688;2023-04-19T05:02:10;8.70;;;5.97;;
42244;SDS011;27912;51.828;5.688;2023-04-19T05:04:35;10.70;;;6.07;;
42244;SDS011;27912;51.828;5.688;2023-04-19T05:07:01;10.52;;;6.15;;
42244;SDS011;27912;51.828;5.688;2023-04-19T05:09:26;7.90;;;5.10;;
42244;SDS011;27912;51.828;5.688;2023-04-19T05:11:52;9.77;;;6.07;;
42244;SDS011;27912;51.828;5.688;2023-04-19T05:14:18;11.10;;;5.65;;
42244;SDS011;27912;51.828;5.688;2023-04-19T05:16:43;10.82;;;5.50;;
42244;SDS011;27912;51.828;5.688;2023-04-19T05:19:09;12.32;;;5.88;;
42244;SDS011;27912;51.828;5.688;2023-04-19T05:21:35;7.75;;;5.32;;
42244;SDS011;27912;51.828;5.688;2023-04-19T05:24:00;9.20;;;5.72;;
42244;SDS011;27912;51.828;5.688;2023-04-19T05:26:26;10.88;;;5.75;;
42244;SDS011;27912;51.828;5.688;2023-04-19T05:28:51;7.55;;;5.07;;
42244;SDS011;27912;51.828;5.688;2023-04-19T05:31:17;11.82;;;6.07;;
42244;SDS011;27912;51.828;5.688;2023-04-19T05:33:44;9.32;;;4.63;;
42244;SDS011;27912;51.828;5.688;2023-04-19T05:36:10;10.52;;;5.45;;
42244;SDS011;27912;51.828;5.688;2023-04-19T05:38:36;8.65;;;4.75;;
42244;SDS011;27912;51.828;5.688;2023-04-19T05:41:02;7.55;;;4.88;;
42244;SDS011;27912;51.828;5.688;2023-04-19T05:43:28;9.95;;;5.15;;
42244;SDS011;27912;51.828;5.688;2023-04-19T05:45:53;7.03;;;4.30;;
42244;SDS011;27912;51.828;5.688;2023-04-19T05:48:19;12.43;;;5.22;;
42244;SDS011;27912;51.828;5.688;2023-04-19T05:50:44;9.43;;;4.97;;
42244;SDS011;27912;51.828;5.688;2023-04-19T05:53:10;6.75;;;4.70;;
42244;SDS011;27912;51.828;5.688;2023-04-19T05:55:36;8.50;;;5.05;;
42244;SDS011;27912;51.828;5.688;2023-04-19T05:58:01;10.30;;;4.55;;
42244;SDS011;27912;51.828;5.688;2023-04-19T06:00:27;7.65;;;5.07;;
42244;SDS011;27912;51.828;5.688;2023-04-19T06:02:52;7.85;;;4.47;;
42244;SDS011;27912;51.828;5.688;2023-04-19T06:05:18;9.90;;;4.57;;
42244;SDS011;27912;51.828;5.688;2023-04-19T06:07:44;8.48;;;4.60;;
42244;SDS011;27912;51.828;5.688;2023-04-19T06:10:09;6.38;;;3.95;;
42244;SDS011;27912;51.828;5.688;2023-04-19T06:12:35;9.27;;;4.90;;
42244;SDS011;27912;51.828;5.688;2023-04-19T06:15:01;7.15;;;4.68;;
42244;SDS011;27912;51.828;5.688;2023-04-19T06:17:26;6.93;;;4.05;;
42244;SDS011;27912;51.828;5.688;2023-04-19T06:19:52;9.05;;;4.13;;
42244;SDS011;27912;51.828;5.688;2023-04-19T06:22:19;7.55;;;4.70;;
42244;SDS011;27912;51.828;5.688;2023-04-19T06:24:45;7.68;;;4.18;;
42244;SDS011;27912;51.828;5.688;2023-04-19T06:27:11;8.05;;;4.07;;
42244;SDS011;27912;51.828;5.688;2023-04-19T06:29:38;9.00;;;4.32;;
42244;SDS011;27912;51.828;5.688;2023-04-19T06:32:03;8.82;;;4.07;;
42244;SDS011;27912;51.828;5.688;2023-04-19T06:34:29;7.03;;;3.95;;
42244;SDS011;27912;51.828;5.688;2023-04-19T06:36:54;8.57;;;4.80;;
42244;SDS011;27912;51.828;5.688;2023-04-19T06:39:20;6.70;;;3.17;;
42244;SDS011;27912;51.828;5.688;2023-04-19T06:41:46;6.03;;;3.67;;
42244;SDS011;27912;51.828;5.688;2023-04-19T06:44:11;8.18;;;3.75;;
42244;SDS011;27912;51.828;5.688;2023-04-19T06:46:37;7.18;;;3.40;;
42244;SDS011;27912;51.828;5.688;2023-04-19T06:49:03;6.47;;;3.53;;
42244;SDS011;27912;51.828;5.688;2023-04-19T06:51:28;7.15;;;3.58;;
42244;SDS011;27912;51.828;5.688;2023-04-19T06:53:54;7.18;;;3.50;;
42244;SDS011;27912;51.828;5.688;2023-04-19T06:56:37;4.60;;;3.17;;
42244;SDS011;27912;51.828;5.688;2023-04-19T06:59:09;6.22;;;3.90;;
42244;SDS011;27912;51.828;5.688;2023-04-19T07:01:35;4.22;;;2.70;;
42244;SDS011;27912;51.828;5.688;2023-04-19T07:04:01;5.05;;;3.13;;
42244;SDS011;27912;51.828;5.688;2023-04-19T07:06:27;11.75;;;3.85;;
42244;SDS011;27912;51.828;5.688;2023-04-19T07:08:53;6.75;;;3.03;;
42244;SDS011;27912;51.828;5.688;2023-04-19T07:11:19;5.65;;;2.92;;
42244;SDS011;27912;51.828;5.688;2023-04-19T07:13:45;7.00;;;3.30;;
42244;SDS011;27912;51.828;5.688;2023-04-19T07:16:10;4.97;;;2.83;;
42244;SDS011;27912;51.828;5.688;2023-04-19T07:18:37;6.07;;;3.05;;
42244;SDS011;27912;51.828;5.688;2023-04-19T07:21:02;6.93;;;2.75;;
42244;SDS011;27912;51.828;5.688;2023-04-19T07:23:28;5.30;;;3.38;;
42244;SDS011;27912;51.828;5.688;2023-04-19T07:25:54;6.40;;;3.55;;
42244;SDS011;27912;51.828;5.688;2023-04-19T07:28:20;4.57;;;2.33;;
42244;SDS011;27912;51.828;5.688;2023-04-19T07:30:45;3.35;;;2.22;;
42244;SDS011;27912;51.828;5.688;2023-04-19T07:33:11;6.03;;;3.00;;
42244;SDS011;27912;51.828;5.688;2023-04-19T07:35:39;4.70;;;2.95;;
42244;SDS011;27912;51.828;5.688;2023-04-19T07:38:05;6.78;;;2.78;;
42244;SDS011;27912;51.828;5.688;2023-04-19T07:40:31;7.70;;;2.38;;
42244;SDS011;27912;51.828;5.688;2023-04-19T07:42:56;5.68;;;2.60;;
42244;SDS011;27912;51.828;5.688;2023-04-19T07:45:22;7.25;;;2.85;;
42244;SDS011;27912;51.828;5.688;2023-04-19T07:47:48;5.50;;;2.10;;
42244;SDS011;27912;51.828;5.688;2023-04-19T07:50:13;4.25;;;2.17;;
42244;SDS011;27912;51.828;5.688;2023-04-19T07:52:39;4.60;;;1.92;;
42244;SDS011;27912;51.828;5.688;2023-04-19T07:55:05;6.65;;;1.85;;
42244;SDS011;27912;51.828;5.688;2023-04-19T07:57:31;3.47;;;1.60;;
42244;SDS011;27912;51.828;5.688;2023-04-19T07:59:58;4.70;;;1.80;;
42244;SDS011;27912;51.828;5.688;2023-04-19T08:02:25;3.40;;;1.38;;
42244;SDS011;27912;51.828;5.688;2023-04-19T08:04:51;4.28;;;1.60;;
42244;SDS011;27912;51.828;5.688;2023-04-19T08:07:17;5.00;;;1.50;;
42244;SDS011;27912;51.828;5.688;2023-04-19T08:09:42;3.30;;;1.67;;
42244;SDS011;27912;51.828;5.688;2023-04-19T08:12:08;6.10;;;1.88;;
42244;SDS011;27912;51.828;5.688;2023-04-19T08:14:33;4.38;;;1.73;;
42244;SDS011;27912;51.828;5.688;2023-04-19T08:16:59;5.82;;;1.73;;
42244;SDS011;27912;51.828;5.688;2023-04-19T08:19:25;5.10;;;1.45;;
42244;SDS011;27912;51.828;5.688;2023-04-19T08:21:50;10.93;;;1.90;;
42244;SDS011;27912;51.828;5.688;2023-04-19T08:24:16;3.58;;;1.50;;
42244;SDS011;27912;51.828;5.688;2023-04-19T08:26:41;2.67;;;1.30;;
42244;SDS011;27912;51.828;5.688;2023-04-19T08:29:07;8.18;;;1.95;;
42244;SDS011;27912;51.828;5.688;2023-04-19T08:31:32;3.70;;;1.48;;
42244;SDS011;27912;51.828;5.688;2023-04-19T08:33:58;3.55;;;1.50;;
42244;SDS011;27912;51.828;5.688;2023-04-19T08:36:24;4.35;;;1.63;;
42244;SDS011;27912;51.828;5.688;2023-04-19T08:38:51;5.38;;;1.60;;
42244;SDS011;27912;51.828;5.688;2023-04-19T08:41:17;4.35;;;1.38;;
42244;SDS011;27912;51.828;5.688;2023-04-19T08:43:43;4.35;;;1.17;;
42244;SDS011;27912;51.828;5.688;2023-04-19T08:46:11;4.80;;;1.17;;
42244;SDS011;27912;51.828;5.688;2023-04-19T08:48:37;5.10;;;1.40;;
42244;SDS011;27912;51.828;5.688;2023-04-19T08:51:04;2.40;;;1.15;;
42244;SDS011;27912;51.828;5.688;2023-04-19T08:53:32;3.30;;;1.35;;
42244;SDS011;27912;51.828;5.688;2023-04-19T08:55:58;6.30;;;1.58;;
42244;SDS011;27912;51.828;5.688;2023-04-19T08:58:25;6.15;;;1.48;;
42244;SDS011;27912;51.828;5.688;2023-04-19T09:00:53;3.42;;;1.27;;
42244;SDS011;27912;51.828;5.688;2023-04-19T09:03:19;3.25;;;1.17;;
42244;SDS011;27912;51.828;5.688;2023-04-19T09:05:45;5.38;;;1.10;;
42244;SDS011;27912;51.828;5.688;2023-04-19T09:08:20;4.70;;;1.13;;
42244;SDS011;27912;51.828;5.688;2023-04-19T09:10:59;2.77;;;1.03;;
42244;SDS011;27912;51.828;5.688;2023-04-19T09:13:26;2.72;;;1.00;;
42244;SDS011;27912;51.828;5.688;2023-04-19T09:15:52;3.35;;;0.85;;
42244;SDS011;27912;51.828;5.688;2023-04-19T09:18:21;3.67;;;0.82;;
42244;SDS011;27912;51.828;5.688;2023-04-19T09:20:49;6.32;;;1.05;;
42244;SDS011;27912;51.828;5.688;2023-04-19T09:23:15;2.70;;;0.90;;
42244;SDS011;27912;51.828;5.688;2023-04-19T09:25:52;2.47;;;0.70;;
42244;SDS011;27912;51.828;5.688;2023-04-19T09:28:24;3.67;;;0.70;;
42244;SDS011;27912;51.828;5.688;2023-04-19T09:30:50;1.60;;;0.80;;
42244;SDS011;27912;51.828;5.688;2023-04-19T09:33:31;5.40;;;0.98;;
42244;SDS011;27912;51.828;5.688;2023-04-19T09:35:58;3.60;;;0.80;;
42244;SDS011;27912;51.828;5.688;2023-04-19T09:38:25;5.10;;;0.73;;
42244;SDS011;27912;51.828;5.688;2023-04-19T09:40:51;2.00;;;0.60;;
42244;SDS011;27912;51.828;5.688;2023-04-19T09:43:23;0.98;;;0.40;;
42244;SDS011;27912;51.828;5.688;2023-04-19T09:45:52;1.35;;;0.50;;
42244;SDS011;27912;51.828;5.688;2023-04-19T09:48:18;1.42;;;0.50;;
42244;SDS011;27912;51.828;5.688;2023-04-19T09:50:49;4.70;;;0.50;;
42244;SDS011;27912;51.828;5.688;2023-04-19T09:53:16;2.30;;;0.75;;
42244;SDS011;27912;51.828;5.688;2023-04-19T09:55:43;1.00;;;0.40;;
42244;SDS011;27912;51.828;5.688;2023-04-19T09:58:11;3.65;;;0.50;;
42244;SDS011;27912;51.828;5.688;2023-04-19T10:00:38;1.52;;;0.57;;
42244;SDS011;27912;51.828;5.688;2023-04-19T10:03:05;3.40;;;0.50;;
42244;SDS011;27912;51.828;5.688;2023-04-19T10:05:33;2.83;;;0.60;;
42244;SDS011;27912;51.828;5.688;2023-04-19T10:08:00;2.00;;;0.50;;
42244;SDS011;27912;51.828;5.688;2023-04-19T10:10:28;1.92;;;0.60;;
42244;SDS011;27912;51.828;5.688;2023-04-19T10:12:54;2.95;;;0.63;;
42244;SDS011;27912;51.828;5.688;2023-04-19T10:15:22;3.03;;;0.52;;
42244;SDS011;27912;51.828;5.688;2023-04-19T10:17:48;4.28;;;0.68;;
42244;SDS011;27912;51.828;5.688;2023-04-19T10:20:17;4.78;;;0.70;;
42244;SDS011;27912;51.828;5.688;2023-04-19T10:22:48;2.85;;;0.57;;
42244;SDS011;27912;51.828;5.688;2023-04-19T10:25:14;2.72;;;0.60;;
42244;SDS011;27912;51.828;5.688;2023-04-19T10:27:44;3.55;;;0.55;;
42244;SDS011;27912;51.828;5.688;2023-04-19T10:30:22;2.08;;;0.60;;
42244;SDS011;27912;51.828;5.688;2023-04-19T10:32:51;4.63;;;0.68;;
42244;SDS011;27912;51.828;5.688;2023-04-19T10:35:25;3.55;;;0.60;;
42244;SDS011;27912;51.828;5.688;2023-04-19T10:38:03;1.25;;;0.50;;
42244;SDS011;27912;51.828;5.688;2023-04-19T10:43:24;1.70;;;0.50;;
42244;SDS011;27912;51.828;5.688;2023-04-19T10:45:54;1.38;;;0.52;;
42244;SDS011;27912;51.828;5.688;2023-04-19T10:50:57;2.90;;;0.50;;
42244;SDS011;27912;51.828;5.688;2023-04-19T11:01:32;3.55;;;0.70;;
42244;SDS011;27912;51.828;5.688;2023-04-19T11:03:58;2.78;;;1.25;;
42244;SDS011;27912;51.828;5.688;2023-04-19T11:06:24;15.82;;;0.80;;
42244;SDS011;27912;51.828;5.688;2023-04-19T11:08:52;3.70;;;0.68;;
42244;SDS011;27912;51.828;5.688;2023-04-19T11:11:21;3.17;;;0.90;;
42244;SDS011;27912;51.828;5.688;2023-04-19T11:13:47;4.00;;;0.80;;
42244;SDS011;27912;51.828;5.688;2023-04-19T11:16:13;3.63;;;0.80;;
42244;SDS011;27912;51.828;5.688;2023-04-19T11:18:38;4.70;;;0.88;;
42244;SDS011;27912;51.828;5.688;2023-04-19T11:21:04;3.88;;;0.70;;
42244;SDS011;27912;51.828;5.688;2023-04-19T11:23:30;1.83;;;0.60;;
42244;SDS011;27912;51.828;5.688;2023-04-19T11:25:55;2.40;;;0.55;;
42244;SDS011;27912;51.828;5.688;2023-04-19T11:28:21;4.35;;;0.60;;
42244;SDS011;27912;51.828;5.688;2023-04-19T11:30:47;3.25;;;0.70;;
42244;SDS011;27912;51.828;5.688;2023-04-19T11:33:13;2.88;;;0.80;;
42244;SDS011;27912;51.828;5.688;2023-04-19T11:35:39;2.22;;;0.70;;
42244;SDS011;27912;51.828;5.688;2023-04-19T11:38:07;3.70;;;1.00;;
42244;SDS011;27912;51.828;5.688;2023-04-19T11:40:32;3.72;;;0.60;;
42244;SDS011;27912;51.828;5.688;2023-04-19T11:42:59;2.20;;;0.55;;
42244;SDS011;27912;51.828;5.688;2023-04-19T11:45:27;5.45;;;0.90;;
42244;SDS011;27912;51.828;5.688;2023-04-19T11:47:54;2.25;;;0.75;;
42244;SDS011;27912;51.828;5.688;2023-04-19T11:50:39;1.88;;;0.73;;
42244;SDS011;27912;51.828;5.688;2023-04-19T11:53:12;1.73;;;0.75;;
42244;SDS011;27912;51.828;5.688;2023-04-19T11:55:41;4.82;;;0.70;;
42244;SDS011;27912;51.828;5.688;2023-04-19T11:58:07;3.13;;;0.60;;
42244;SDS011;27912;51.828;5.688;2023-04-19T12:00:35;3.10;;;0.55;;
42244;SDS011;27912;51.828;5.688;2023-04-19T12:03:01;3.22;;;0.70;;
42244;SDS011;27912;51.828;5.688;2023-04-19T12:05:28;2.85;;;0.50;;
42244;SDS011;27912;51.828;5.688;2023-04-19T12:10:30;2.00;;;0.70;;
42244;SDS011;27912;51.828;5.688;2023-04-19T12:12:56;1.67;;;0.60;;
42244;SDS011;27912;51.828;5.688;2023-04-19T12:15:23;2.33;;;0.70;;
42244;SDS011;27912;51.828;5.688;2023-04-19T12:18:04;2.22;;;0.57;;
42244;SDS011;27912;51.828;5.688;2023-04-19T12:20:30;2.83;;;0.70;;
42244;SDS011;27912;51.828;5.688;2023-04-19T12:22:57;4.13;;;1.40;;
42244;SDS011;27912;51.828;5.688;2023-04-19T12:25:26;6.32;;;1.00;;
42244;SDS011;27912;51.828;5.688;2023-04-19T12:27:52;2.25;;;0.70;;
42244;SDS011;27912;51.828;5.688;2023-04-19T12:30:18;2.97;;;1.10;;
42244;SDS011;27912;51.828;5.688;2023-04-19T12:32:43;2.03;;;0.52;;
42244;SDS011;27912;51.828;5.688;2023-04-19T12:35:09;2.08;;;0.90;;
42244;SDS011;27912;51.828;5.688;2023-04-19T12:37:35;2.30;;;0.98;;
42244;SDS011;27912;51.828;5.688;2023-04-19T12:40:00;1.52;;;0.65;;
42244;SDS011;27912;51.828;5.688;2023-04-19T12:42:26;7.75;;;1.40;;
42244;SDS011;27912;51.828;5.688;2023-04-19T12:44:51;2.72;;;0.80;;
42244;SDS011;27912;51.828;5.688;2023-04-19T12:47:17;3.45;;;1.10;;
42244;SDS011;27912;51.828;5.688;2023-04-19T12:49:42;2.42;;;0.90;;
42244;SDS011;27912;51.828;5.688;2023-04-19T12:52:08;2.65;;;0.88;;
42244;SDS011;27912;51.828;5.688;2023-04-19T12:54:33;3.13;;;0.70;;
42244;SDS011;27912;51.828;5.688;2023-04-19T12:56:59;2.30;;;0.73;;
42244;SDS011;27912;51.828;5.688;2023-04-19T12:59:25;4.00;;;0.90;;
42244;SDS011;27912;51.828;5.688;2023-04-19T13:01:51;3.42;;;0.88;;
42244;SDS011;27912;51.828;5.688;2023-04-19T13:04:16;2.00;;;0.60;;
42244;SDS011;27912;51.828;5.688;2023-04-19T13:06:42;5.53;;;0.93;;
42244;SDS011;27912;51.828;5.688;2023-04-19T13:09:07;4.53;;;1.05;;
42244;SDS011;27912;51.828;5.688;2023-04-19T13:11:33;1.85;;;0.93;;
42244;SDS011;27912;51.828;5.688;2023-04-19T13:13:58;2.08;;;0.90;;
42244;SDS011;27912;51.828;5.688;2023-04-19T13:16:24;5.35;;;1.20;;
42244;SDS011;27912;51.828;5.688;2023-04-19T13:18:49;4.45;;;0.90;;
42244;SDS011;27912;51.828;5.688;2023-04-19T13:21:16;2.10;;;1.10;;
42244;SDS011;27912;51.828;5.688;2023-04-19T13:23:42;3.15;;;0.85;;
42244;SDS011;27912;51.828;5.688;2023-04-19T13:26:08;4.20;;;1.10;;
42244;SDS011;27912;51.828;5.688;2023-04-19T13:28:34;2.75;;;1.17;;
42244;SDS011;27912;51.828;5.688;2023-04-19T13:31:00;4.55;;;1.13;;
42244;SDS011;27912;51.828;5.688;2023-04-19T13:33:26;2.25;;;0.80;;
42244;SDS011;27912;51.828;5.688;2023-04-19T13:35:52;2.85;;;1.00;;
42244;SDS011;27912;51.828;5.688;2023-04-19T13:38:18;3.08;;;1.20;;
42244;SDS011;27912;51.828;5.688;2023-04-19T13:40:43;2.28;;;0.73;;
42244;SDS011;27912;51.828;5.688;2023-04-19T13:43:09;5.88;;;1.33;;
42244;SDS011;27912;51.828;5.688;2023-04-19T13:45:35;4.20;;;1.50;;
42244;SDS011;27912;51.828;5.688;2023-04-19T13:48:00;3.85;;;1.35;;
42244;SDS011;27912;51.828;5.688;2023-04-19T13:50:26;3.25;;;1.10;;
42244;SDS011;27912;51.828;5.688;2023-04-19T13:52:52;2.95;;;1.00;;
42244;SDS011;27912;51.828;5.688;2023-04-19T13:55:17;4.75;;;1.40;;
42244;SDS011;27912;51.828;5.688;2023-04-19T13:57:44;2.17;;;1.15;;
42244;SDS011;27912;51.828;5.688;2023-04-19T14:00:10;4.22;;;1.60;;
42244;SDS011;27912;51.828;5.688;2023-04-19T14:02:35;5.18;;;1.58;;
42244;SDS011;27912;51.828;5.688;2023-04-19T14:05:01;4.68;;;1.00;;
42244;SDS011;27912;51.828;5.688;2023-04-19T14:07:28;2.40;;;0.85;;
42244;SDS011;27912;51.828;5.688;2023-04-19T14:09:54;2.85;;;1.13;;
42244;SDS011;27912;51.828;5.688;2023-04-19T14:12:19;2.15;;;0.80;;
42244;SDS011;27912;51.828;5.688;2023-04-19T14:14:45;3.97;;;1.10;;
42244;SDS011;27912;51.828;5.688;2023-04-19T14:17:10;3.38;;;1.10;;
42244;SDS011;27912;51.828;5.688;2023-04-19T14:19:36;5.72;;;1.17;;
42244;SDS011;27912;51.828;5.688;2023-04-19T14:22:01;4.20;;;1.15;;
42244;SDS011;27912;51.828;5.688;2023-04-19T14:24:27;1.90;;;0.95;;
42244;SDS011;27912;51.828;5.688;2023-04-19T14:26:53;3.55;;;1.35;;
42244;SDS011;27912;51.828;5.688;2023-04-19T14:29:18;2.13;;;0.80;;
42244;SDS011;27912;51.828;5.688;2023-04-19T14:31:44;3.08;;;0.98;;
42244;SDS011;27912;51.828;5.688;2023-04-19T14:34:09;5.20;;;0.90;;
42244;SDS011;27912;51.828;5.688;2023-04-19T14:36:35;2.15;;;1.00;;
42244;SDS011;27912;51.828;5.688;2023-04-19T14:39:00;3.67;;;0.93;;
42244;SDS011;27912;51.828;5.688;2023-04-19T14:41:26;3.92;;;1.10;;
42244;SDS011;27912;51.828;5.688;2023-04-19T14:43:51;3.15;;;0.90;;
42244;SDS011;27912;51.828;5.688;2023-04-19T14:46:19;4.22;;;1.15;;
42244;SDS011;27912;51.828;5.688;2023-04-19T14:48:44;3.85;;;1.20;;
42244;SDS011;27912;51.828;5.688;2023-04-19T14:51:10;2.80;;;1.30;;
42244;SDS011;27912;51.828;5.688;2023-04-19T14:53:35;7.60;;;1.45;;